Star Markella — V7KL3 — position and weather

sailwx.info

Track history (hours):
 
Tides and Currents Weather Stations Pressure Air Temp Water Temp Dewpoint Dewpoint Depression Visibility Wind Speed Wind Dir Waves Ship Positions

Star Markella

Last reported at 2017-Dec-14 08:50 UTC. Time now 2017-Dec-16 18:53 UTC.
Position N 22°12' E 120°08'.

Length 229 m; draft 8.4 m.

Type: Cargo ship. MMSI: 538002640.

Date/timePositionNaut miles runAvg speedWind from/ knotsBaromVisibWave heightAir tempDewpointWater temp
2017-Dec-14 08:50N 22°12' E 120°08'410.1
2017-Dec-14 08:27N 22°16' E 120°08'510.3
2017-Dec-14 08:00N 22°21' E 120°08'510.8
2017-Dec-14 07:30N 22°26' E 120°08'510.6
2017-Dec-14 07:01N 22°31' E 120°08'5 9.1
2017-Dec-14 06:30N 22°33' E 120°12'5 9.8
2017-Dec-14 06:00N 22°33' E 120°18'2 4.7
2017-Dec-14 05:30N 22°33' E 120°20'0 0.6
2017-Dec-14 04:59N 22°33' E 120°21'0 0.0
2017-Dec-14 04:29N 22°33' E 120°21'0 0.0
2017-Dec-14 03:59N 22°33' E 120°21'0 0.0
2017-Dec-14 03:29N 22°33' E 120°21'0 0.0
2017-Dec-14 02:59N 22°33' E 120°21'0 0.0
2017-Dec-14 02:29N 22°33' E 120°21'0 0.0
2017-Dec-14 01:59N 22°33' E 120°21'0 0.0
2017-Dec-14 01:29N 22°33' E 120°21'0 0.0
2017-Dec-14 00:59N 22°33' E 120°21'0 0.1
2017-Dec-14 00:29N 22°33' E 120°21'0 0.0
2017-Dec-13 23:59N 22°33' E 120°21'0 0.1
2017-Dec-13 23:29N 22°33' E 120°21'0 0.0
2017-Dec-13 22:59N 22°33' E 120°21'0 0.0
2017-Dec-13 22:29N 22°33' E 120°21'0 0.0
2017-Dec-13 21:59N 22°33' E 120°21'0 0.0
2017-Dec-13 21:29N 22°33' E 120°21'0 0.0
2017-Dec-13 20:59N 22°33' E 120°21'0 0.0
2017-Dec-13 20:29N 22°33' E 120°21'0 0.0
2017-Dec-13 19:59N 22°33' E 120°21'0 0.0
2017-Dec-13 19:29N 22°33' E 120°21'0 0.0
2017-Dec-13 18:59N 22°33' E 120°21'0 0.0
2017-Dec-13 18:29N 22°33' E 120°21'0 0.1
2017-Dec-13 17:56N 22°33' E 120°21'0 0.1
2017-Dec-13 17:29N 22°33' E 120°21'0 0.0
2017-Dec-13 16:59N 22°33' E 120°21'0 0.0
2017-Dec-13 16:29N 22°33' E 120°21'0 0.0
2017-Dec-13 15:59N 22°33' E 120°21'0 0.0
2017-Dec-13 15:29N 22°33' E 120°21'0 0.0
2017-Dec-13 14:59N 22°33' E 120°21'0 0.0
2017-Dec-13 14:29N 22°33' E 120°21'0 0.0
2017-Dec-13 13:59N 22°33' E 120°21'0 0.0
2017-Dec-13 13:29N 22°33' E 120°21'0 0.0
2017-Dec-13 12:59N 22°33' E 120°21'0 0.0
2017-Dec-13 12:29N 22°33' E 120°21'0 0.0
2017-Dec-13 11:59N 22°33' E 120°21'0 0.1
2017-Dec-13 11:29N 22°33' E 120°21'0 0.1
2017-Dec-13 10:59N 22°33' E 120°21'1 0.0
2017-Dec-12 14:40N 22°33' E 120°20'1 3.5
2017-Dec-12 14:30N 22°33' E 120°19'3 5.8
2017-Dec-12 14:00N 22°33' E 120°16'1 2.9
2017-Dec-12 13:30N 22°33' E 120°15'0 0.9
2017-Dec-12 12:58N 22°33' E 120°15'0 0.0
2017-Dec-12 12:16N 22°33' E 120°15'0 0.0
2017-Dec-12 11:58N 22°33' E 120°15'0 0.0
2017-Dec-12 11:28N 22°33' E 120°15'0 0.1
2017-Dec-12 10:58N 22°33' E 120°15'0 0.0
2017-Dec-12 10:22N 22°33' E 120°15'0 0.0
2017-Dec-12 09:58N 22°33' E 120°15'0 0.1
2017-Dec-12 09:28N 22°33' E 120°15'0 0.1
2017-Dec-12 08:58N 22°33' E 120°15'0 0.0
2017-Dec-12 08:28N 22°33' E 120°15'0 0.2
2017-Dec-12 07:58N 22°33' E 120°15'0 0.2
2017-Dec-12 07:28N 22°33' E 120°15'0 0.2
2017-Dec-12 06:58N 22°33' E 120°15'0 0.1
2017-Dec-12 06:28N 22°33' E 120°15'0 0.0
2017-Dec-12 05:58N 22°33' E 120°15'0 0.0
2017-Dec-12 05:28N 22°33' E 120°15'0 0.1
2017-Dec-12 04:58N 22°33' E 120°15'0 0.1
2017-Dec-12 04:28N 22°33' E 120°15'0 0.1
2017-Dec-12 03:58N 22°33' E 120°15'0 0.0
2017-Dec-12 03:28N 22°33' E 120°15'0 0.2
2017-Dec-12 02:58N 22°33' E 120°15'0 0.1
2017-Dec-12 02:28N 22°33' E 120°15'0 0.0
2017-Dec-12 01:58N 22°33' E 120°15'0 0.1
2017-Dec-12 01:28N 22°33' E 120°15'0 0.1
2017-Dec-12 00:58N 22°33' E 120°15'0 0.0
2017-Dec-12 00:28N 22°33' E 120°15'0 0.0
2017-Dec-11 23:58N 22°33' E 120°15'0 0.0
2017-Dec-11 23:28N 22°33' E 120°15'0 0.1
2017-Dec-11 22:52N 22°33' E 120°15'0 0.2
2017-Dec-11 22:22N 22°33' E 120°15'0 0.1
2017-Dec-11 21:58N 22°33' E 120°15'0 0.0
2017-Dec-11 21:22N 22°33' E 120°15'0 0.0
2017-Dec-11 20:58N 22°33' E 120°15'0 0.0
2017-Dec-11 20:28N 22°33' E 120°15'0 0.2
2017-Dec-11 19:58N 22°33' E 120°15'0 0.3
2017-Dec-11 19:28N 22°33' E 120°15'0 0.1
2017-Dec-11 18:58N 22°33' E 120°15'0 0.0
2017-Dec-11 18:28N 22°33' E 120°15'0 0.0
2017-Dec-11 17:58N 22°33' E 120°15'0 0.0
2017-Dec-11 17:28N 22°33' E 120°15'0 0.0
2017-Dec-11 16:58N 22°33' E 120°15'0 0.0
2017-Dec-11 16:28N 22°33' E 120°15'0 0.0
2017-Dec-11 15:58N 22°33' E 120°15'0 0.0
2017-Dec-11 15:28N 22°33' E 120°15'0 0.0
2017-Dec-11 14:58N 22°33' E 120°15'0 0.0
2017-Dec-11 14:28N 22°33' E 120°15'0 0.1
2017-Dec-11 13:28N 22°33' E 120°15'0 0.0
2017-Dec-11 12:58N 22°33' E 120°15'0 0.1
2017-Dec-11 12:28N 22°33' E 120°15'0 0.1
2017-Dec-11 11:58N 22°33' E 120°15'0 0.2
2017-Dec-11 11:28N 22°33' E 120°15'0 0.2
2017-Dec-11 10:58N 22°33' E 120°15'0 0.2
2017-Dec-11 10:28N 22°33' E 120°15'0 0.1
2017-Dec-11 09:58N 22°33' E 120°15'0 0.1
2017-Dec-11 09:22N 22°33' E 120°15'0 0.0
2017-Dec-11 08:58N 22°33' E 120°15'0 0.0
2017-Dec-11 08:28N 22°33' E 120°15'0 0.1
2017-Dec-11 07:58N 22°33' E 120°15'0 0.1
2017-Dec-11 07:28N 22°33' E 120°15'0 0.1
2017-Dec-11 06:58N 22°33' E 120°15'0 0.1
2017-Dec-11 06:28N 22°33' E 120°15'0 0.0
2017-Dec-11 05:58N 22°33' E 120°15'0 0.0
2017-Dec-11 05:28N 22°33' E 120°15'0 0.0
2017-Dec-11 04:58N 22°33' E 120°15'0 0.0
2017-Dec-11 04:28N 22°33' E 120°15'0 0.0
2017-Dec-11 03:58N 22°33' E 120°15'0 0.0
2017-Dec-11 03:28N 22°33' E 120°15'0 0.0
2017-Dec-11 02:58N 22°33' E 120°15'0 0.0
2017-Dec-11 02:28N 22°33' E 120°15'0 0.0
2017-Dec-11 01:58N 22°33' E 120°15'0 0.1
2017-Dec-11 01:28N 22°33' E 120°15'0 0.0
2017-Dec-11 00:58N 22°33' E 120°15'0 0.0
2017-Dec-11 00:22N 22°33' E 120°15'0 0.1
2017-Dec-10 23:58N 22°33' E 120°15'0 0.1
2017-Dec-10 23:28N 22°33' E 120°15'0 0.3
2017-Dec-10 22:58N 22°33' E 120°15'0 0.2
2017-Dec-10 22:28N 22°33' E 120°15'0 0.1
2017-Dec-10 21:58N 22°33' E 120°15'0 0.0
2017-Dec-10 21:28N 22°33' E 120°15'0 0.0
2017-Dec-10 20:58N 22°33' E 120°15'0 0.1
2017-Dec-10 20:28N 22°33' E 120°15'0 0.1
2017-Dec-10 19:58N 22°33' E 120°15'0 0.2
2017-Dec-10 19:28N 22°33' E 120°15'0 0.1
2017-Dec-10 18:58N 22°33' E 120°15'0 0.0
2017-Dec-10 18:28N 22°33' E 120°15'0 0.0
2017-Dec-10 17:58N 22°33' E 120°15'0 0.1
2017-Dec-10 17:28N 22°33' E 120°15'0 0.0
2017-Dec-10 16:58N 22°33' E 120°15'0 0.0
2017-Dec-10 16:28N 22°33' E 120°15'0 0.0
2017-Dec-10 15:58N 22°33' E 120°15'0 0.0
2017-Dec-10 15:28N 22°33' E 120°15'0 0.0
2017-Dec-10 14:58N 22°33' E 120°15'0 0.0
2017-Dec-10 14:28N 22°33' E 120°15'0 0.1
2017-Dec-10 13:58N 22°33' E 120°15'0 0.0
2017-Dec-10 13:28N 22°33' E 120°15'0 0.0
2017-Dec-10 12:58N 22°33' E 120°15'0 0.0
2017-Dec-10 12:28N 22°33' E 120°15'0 0.0
2017-Dec-10 11:58N 22°33' E 120°15'0 0.1
2017-Dec-10 11:28N 22°33' E 120°15'0 0.0
2017-Dec-10 10:58N 22°33' E 120°15'0 0.0
2017-Dec-10 10:28N 22°33' E 120°15'0 0.0
2017-Dec-10 09:58N 22°33' E 120°15'0 0.1
2017-Dec-10 09:28N 22°33' E 120°15'0 0.2
2017-Dec-10 08:55N 22°33' E 120°15'0 0.1
2017-Dec-10 08:25N 22°33' E 120°15'0 0.1
2017-Dec-10 07:58N 22°33' E 120°15'0 0.0
2017-Dec-10 07:28N 22°33' E 120°15'0 0.0
2017-Dec-10 06:58N 22°33' E 120°15'0 0.0
2017-Dec-10 06:22N 22°33' E 120°15'0 0.0
2017-Dec-10 05:58N 22°33' E 120°15'0 0.0
2017-Dec-10 05:28N 22°33' E 120°15'0 0.1
2017-Dec-10 04:58N 22°33' E 120°15'0 0.1
2017-Dec-10 04:28N 22°33' E 120°15'0 0.1
2017-Dec-10 03:58N 22°33' E 120°15'0 0.1
2017-Dec-10 03:28N 22°33' E 120°15'0 0.1
2017-Dec-10 02:58N 22°33' E 120°15'0 0.1
2017-Dec-10 02:28N 22°33' E 120°15'0 0.0
2017-Dec-10 01:58N 22°33' E 120°15'0 0.1
2017-Dec-10 01:28N 22°33' E 120°15'0 0.1
2017-Dec-10 00:58N 22°33' E 120°15'0 0.1
2017-Dec-10 00:28N 22°33' E 120°15'0 0.0
2017-Dec-09 23:52N 22°33' E 120°15'0 0.0
2017-Dec-09 23:28N 22°33' E 120°15'0 0.1
2017-Dec-09 22:58N 22°33' E 120°15'0 0.2
2017-Dec-09 22:28N 22°33' E 120°15'0 0.1
2017-Dec-09 21:58N 22°33' E 120°15'0 0.1
2017-Dec-09 21:28N 22°33' E 120°15'0 0.1
2017-Dec-09 20:58N 22°33' E 120°15'0 0.0
2017-Dec-09 20:28N 22°33' E 120°15'0 0.1
2017-Dec-09 19:58N 22°33' E 120°15'0 0.1
2017-Dec-09 19:28N 22°33' E 120°15'0 0.1
2017-Dec-09 18:58N 22°33' E 120°15'0 0.0
2017-Dec-09 18:28N 22°33' E 120°15'0 0.1
2017-Dec-09 17:58N 22°33' E 120°15'0 0.2
2017-Dec-09 17:28N 22°33' E 120°15'0 0.1
2017-Dec-09 16:58N 22°33' E 120°15'0 0.0
2017-Dec-09 16:28N 22°33' E 120°15'0 0.1
2017-Dec-09 15:58N 22°33' E 120°15'0 0.0
2017-Dec-09 15:28N 22°33' E 120°15'0 0.0
2017-Dec-09 14:58N 22°33' E 120°15'0 0.1
2017-Dec-09 14:28N 22°33' E 120°15'0 0.0
2017-Dec-09 13:58N 22°33' E 120°15'0 0.1
2017-Dec-09 13:28N 22°33' E 120°15'0 0.0
2017-Dec-09 12:58N 22°33' E 120°15'0 0.0
2017-Dec-09 12:28N 22°33' E 120°15'0 0.0
2017-Dec-09 11:58N 22°33' E 120°15'0 0.0
2017-Dec-09 11:28N 22°33' E 120°15'0 0.0
2017-Dec-09 10:58N 22°33' E 120°15'0 0.1
2017-Dec-09 10:28N 22°33' E 120°15'0 0.1
2017-Dec-09 09:58N 22°33' E 120°15'0 0.1
2017-Dec-09 09:28N 22°33' E 120°15'0 0.2
2017-Dec-09 08:58N 22°33' E 120°15'0 0.2
2017-Dec-09 08:28N 22°33' E 120°15'0 0.1
2017-Dec-09 07:58N 22°33' E 120°15'0 0.0
2017-Dec-09 07:28N 22°33' E 120°15'0 0.1
2017-Dec-09 06:58N 22°33' E 120°15'0 0.1
2017-Dec-09 06:28N 22°33' E 120°15'0 0.1
2017-Dec-09 05:52N 22°33' E 120°15'0 0.1
2017-Dec-09 05:28N 22°33' E 120°15'0 0.2
2017-Dec-09 04:55N 22°33' E 120°15'0 0.0
2017-Dec-09 04:28N 22°33' E 120°15'0 0.0
2017-Dec-09 03:58N 22°33' E 120°15'0 0.0
2017-Dec-09 03:28N 22°33' E 120°15'0 0.0
2017-Dec-09 02:58N 22°33' E 120°15'0 0.0
2017-Dec-09 02:28N 22°33' E 120°15'0 0.0
2017-Dec-09 01:58N 22°33' E 120°15'0 0.0
2017-Dec-09 01:28N 22°33' E 120°15'0 0.0
2017-Dec-09 00:58N 22°33' E 120°15'0 0.0
2017-Dec-09 00:28N 22°33' E 120°15'0 0.1
2017-Dec-08 23:58N 22°33' E 120°15'0 0.1
2017-Dec-08 23:28N 22°33' E 120°15'0 0.0
2017-Dec-08 22:58N 22°33' E 120°15'0 0.0
2017-Dec-08 22:28N 22°33' E 120°15'0 0.0
2017-Dec-08 21:58N 22°33' E 120°15'0 0.1
2017-Dec-08 21:28N 22°33' E 120°15'0 0.0
2017-Dec-08 20:58N 22°33' E 120°15'0 0.0
2017-Dec-08 20:28N 22°33' E 120°15'0 0.1
2017-Dec-08 19:58N 22°33' E 120°15'0 0.2
2017-Dec-08 19:28N 22°33' E 120°15'0 0.2
2017-Dec-08 18:58N 22°33' E 120°15'0 0.1
2017-Dec-08 18:28N 22°33' E 120°15'0 0.0
2017-Dec-08 17:58N 22°33' E 120°15'0 0.1
2017-Dec-08 17:28N 22°33' E 120°15'0 0.1
2017-Dec-08 16:52N 22°33' E 120°15'0 0.0
2017-Dec-08 16:28N 22°33' E 120°15'0 0.0
2017-Dec-08 15:58N 22°33' E 120°15'0 0.0
2017-Dec-08 15:28N 22°33' E 120°15'0 0.0
2017-Dec-08 14:58N 22°33' E 120°15'0 0.0
2017-Dec-08 14:28N 22°33' E 120°15'0 0.0
2017-Dec-08 13:58N 22°33' E 120°15'0 0.0
2017-Dec-08 13:28N 22°33' E 120°15'0 0.0
2017-Dec-08 12:58N 22°33' E 120°15'0 0.0
2017-Dec-08 12:28N 22°33' E 120°15'0 0.0
2017-Dec-08 11:58N 22°33' E 120°15'0 0.0
2017-Dec-08 11:28N 22°33' E 120°15'0 0.0
2017-Dec-08 10:58N 22°33' E 120°15'0 0.0
2017-Dec-08 10:28N 22°33' E 120°15'0 0.0
2017-Dec-08 09:58N 22°33' E 120°15'0 0.0
2017-Dec-08 09:28N 22°33' E 120°15'0 0.0
2017-Dec-08 08:58N 22°33' E 120°15'0 0.0
2017-Dec-08 08:28N 22°33' E 120°15'0 0.0
2017-Dec-08 07:58N 22°33' E 120°15'0 0.0
2017-Dec-08 07:28N 22°33' E 120°15'0 0.0
2017-Dec-08 06:55N 22°33' E 120°15'0 0.0
2017-Dec-08 06:28N 22°33' E 120°15'0 0.0
2017-Dec-08 05:58N 22°33' E 120°15'0 0.0
2017-Dec-08 05:28N 22°33' E 120°15'0 0.0
2017-Dec-08 04:58N 22°33' E 120°15'0 0.0
2017-Dec-08 04:28N 22°33' E 120°15'0 0.1
2017-Dec-08 03:58N 22°33' E 120°15'0 0.0
2017-Dec-08 03:28N 22°33' E 120°15'0 0.1
2017-Dec-08 02:58N 22°33' E 120°15'0 0.0
2017-Dec-08 02:28N 22°33' E 120°15'0 0.0
2017-Dec-08 01:58N 22°33' E 120°15'0 0.0
2017-Dec-08 01:28N 22°33' E 120°15'0 0.0
2017-Dec-08 00:58N 22°33' E 120°15'0 0.0
2017-Dec-08 00:28N 22°33' E 120°15'0 0.0
2017-Dec-07 23:58N 22°33' E 120°15'0 0.1
2017-Dec-07 23:28N 22°33' E 120°15'0 0.1
2017-Dec-07 22:58N 22°33' E 120°15'0 0.0
2017-Dec-07 22:28N 22°33' E 120°15'0 0.0
2017-Dec-07 21:58N 22°33' E 120°15'0 0.0
2017-Dec-07 21:28N 22°33' E 120°15'0 0.1
2017-Dec-07 20:58N 22°33' E 120°15'0 0.0
2017-Dec-07 20:28N 22°33' E 120°15'0 0.0
2017-Dec-07 19:58N 22°33' E 120°15'0 0.1
2017-Dec-07 19:28N 22°33' E 120°15'0 0.0
2017-Dec-07 18:58N 22°33' E 120°15'0 0.0
2017-Dec-07 18:28N 22°33' E 120°15'0 0.0
2017-Dec-07 17:58N 22°33' E 120°15'0 0.1
2017-Dec-07 17:28N 22°33' E 120°15'0 0.0
2017-Dec-07 16:58N 22°33' E 120°15'0 0.0
2017-Dec-07 16:28N 22°33' E 120°15'0 0.0
2017-Dec-07 15:58N 22°33' E 120°15'0 0.0
2017-Dec-07 15:28N 22°33' E 120°15'0 0.0
2017-Dec-07 14:58N 22°33' E 120°15'0 0.1
2017-Dec-07 14:28N 22°33' E 120°15'0 0.0
2017-Dec-07 13:58N 22°33' E 120°15'0 0.0
2017-Dec-07 13:28N 22°33' E 120°15'0 0.0
2017-Dec-07 12:58N 22°33' E 120°15'0 0.0
2017-Dec-07 12:28N 22°33' E 120°15'0 0.0
2017-Dec-07 11:58N 22°33' E 120°15'0 0.0
2017-Dec-07 11:28N 22°33' E 120°15'0 0.0
2017-Dec-07 10:58N 22°33' E 120°15'0 0.0
2017-Dec-07 10:28N 22°33' E 120°15'0 0.0
2017-Dec-07 09:58N 22°33' E 120°15'0 0.0
2017-Dec-07 09:28N 22°33' E 120°15'0 0.0
2017-Dec-07 08:58N 22°33' E 120°15'0 0.0
2017-Dec-07 08:28N 22°33' E 120°15'0 0.0
2017-Dec-07 07:58N 22°33' E 120°15'0 0.0
2017-Dec-07 07:28N 22°33' E 120°15'0 0.0
2017-Dec-07 06:58N 22°33' E 120°15'0 0.1
2017-Dec-07 06:28N 22°33' E 120°15'0 0.3
2017-Dec-07 05:58N 22°33' E 120°15'0 0.2
2017-Dec-07 05:28N 22°33' E 120°15'0 0.1
2017-Dec-07 04:58N 22°33' E 120°15'0 0.0
2017-Dec-07 04:28N 22°33' E 120°15'0 0.0
2017-Dec-07 03:58N 22°33' E 120°15'0 0.1
2017-Dec-07 03:28N 22°33' E 120°15'0 0.0
2017-Dec-07 02:55N 22°33' E 120°15'0 0.0
2017-Dec-07 02:28N 22°33' E 120°15'0 0.2
2017-Dec-07 01:58N 22°33' E 120°15'0 0.1
2017-Dec-07 01:28N 22°33' E 120°15'0 0.1
2017-Dec-07 00:58N 22°33' E 120°15'0 0.1
2017-Dec-07 00:28N 22°33' E 120°15'0 0.1
2017-Dec-06 23:58N 22°33' E 120°15'0 0.1
2017-Dec-06 23:28N 22°33' E 120°15'0 0.1
2017-Dec-06 22:58N 22°33' E 120°15'0 0.0
2017-Dec-06 22:28N 22°33' E 120°15'0 0.0
2017-Dec-06 21:58N 22°33' E 120°15'0 0.0
2017-Dec-06 21:28N 22°33' E 120°15'0 0.0
2017-Dec-06 20:58N 22°33' E 120°15'  
2017-Dec-04 10:28N 22°33' E 120°15'0 0.0
2017-Dec-04 09:58N 22°33' E 120°15'0 0.0
2017-Dec-04 09:28N 22°33' E 120°15'0 0.0
2017-Dec-04 08:58N 22°33' E 120°15'  
Track history (hours):
 
Tides and Currents Weather Stations Pressure Air Temp Water Temp Dewpoint Dewpoint Depression Visibility Wind Speed Wind Dir Waves Ship Positions

Star Markella

Last reported at 2017-Dec-14 08:50 UTC. Time now 2017-Dec-16 18:53 UTC.
Position N 22°12' E 120°08'.

Length 229 m; draft 8.4 m.

Type: Cargo ship. MMSI: 538002640.

Date/timePositionNaut miles runAvg speedWind from/ knotsBaromVisibWave heightAir tempDewpointWater temp
2017-Dec-14 08:50N 22°12' E 120°08'410.1
2017-Dec-14 08:27N 22°16' E 120°08'510.3
2017-Dec-14 08:00N 22°21' E 120°08'510.8
2017-Dec-14 07:30N 22°26' E 120°08'510.6
2017-Dec-14 07:01N 22°31' E 120°08'5 9.1
2017-Dec-14 06:30N 22°33' E 120°12'5 9.8
2017-Dec-14 06:00N 22°33' E 120°18'2 4.7
2017-Dec-14 05:30N 22°33' E 120°20'0 0.6
2017-Dec-14 04:59N 22°33' E 120°21'0 0.0
2017-Dec-14 04:29N 22°33' E 120°21'0 0.0
2017-Dec-14 03:59N 22°33' E 120°21'0 0.0
2017-Dec-14 03:29N 22°33' E 120°21'0 0.0
2017-Dec-14 02:59N 22°33' E 120°21'0 0.0
2017-Dec-14 02:29N 22°33' E 120°21'0 0.0
2017-Dec-14 01:59N 22°33' E 120°21'0 0.0
2017-Dec-14 01:29N 22°33' E 120°21'0 0.0
2017-Dec-14 00:59N 22°33' E 120°21'0 0.1
2017-Dec-14 00:29N 22°33' E 120°21'0 0.0
2017-Dec-13 23:59N 22°33' E 120°21'0 0.1
2017-Dec-13 23:29N 22°33' E 120°21'0 0.0
2017-Dec-13 22:59N 22°33' E 120°21'0 0.0
2017-Dec-13 22:29N 22°33' E 120°21'0 0.0
2017-Dec-13 21:59N 22°33' E 120°21'0 0.0
2017-Dec-13 21:29N 22°33' E 120°21'0 0.0
2017-Dec-13 20:59N 22°33' E 120°21'0 0.0
2017-Dec-13 20:29N 22°33' E 120°21'0 0.0
2017-Dec-13 19:59N 22°33' E 120°21'0 0.0
2017-Dec-13 19:29N 22°33' E 120°21'0 0.0
2017-Dec-13 18:59N 22°33' E 120°21'0 0.0
2017-Dec-13 18:29N 22°33' E 120°21'0 0.1
2017-Dec-13 17:56N 22°33' E 120°21'0 0.1
2017-Dec-13 17:29N 22°33' E 120°21'0 0.0
2017-Dec-13 16:59N 22°33' E 120°21'0 0.0
2017-Dec-13 16:29N 22°33' E 120°21'0 0.0
2017-Dec-13 15:59N 22°33' E 120°21'0 0.0
2017-Dec-13 15:29N 22°33' E 120°21'0 0.0
2017-Dec-13 14:59N 22°33' E 120°21'0 0.0
2017-Dec-13 14:29N 22°33' E 120°21'0 0.0
2017-Dec-13 13:59N 22°33' E 120°21'0 0.0
2017-Dec-13 13:29N 22°33' E 120°21'0 0.0
2017-Dec-13 12:59N 22°33' E 120°21'0 0.0
2017-Dec-13 12:29N 22°33' E 120°21'0 0.0
2017-Dec-13 11:59N 22°33' E 120°21'0 0.1
2017-Dec-13 11:29N 22°33' E 120°21'0 0.1
2017-Dec-13 10:59N 22°33' E 120°21'1 0.0
2017-Dec-12 14:40N 22°33' E 120°20'1 3.5
2017-Dec-12 14:30N 22°33' E 120°19'3 5.8
2017-Dec-12 14:00N 22°33' E 120°16'1 2.9
2017-Dec-12 13:30N 22°33' E 120°15'0 0.9
2017-Dec-12 12:58N 22°33' E 120°15'0 0.0
2017-Dec-12 12:16N 22°33' E 120°15'0 0.0
2017-Dec-12 11:58N 22°33' E 120°15'0 0.0
2017-Dec-12 11:28N 22°33' E 120°15'0 0.1
2017-Dec-12 10:58N 22°33' E 120°15'0 0.0
2017-Dec-12 10:22N 22°33' E 120°15'0 0.0
2017-Dec-12 09:58N 22°33' E 120°15'0 0.1
2017-Dec-12 09:28N 22°33' E 120°15'0 0.1
2017-Dec-12 08:58N 22°33' E 120°15'0 0.0
2017-Dec-12 08:28N 22°33' E 120°15'0 0.2
2017-Dec-12 07:58N 22°33' E 120°15'0 0.2
2017-Dec-12 07:28N 22°33' E 120°15'0 0.2
2017-Dec-12 06:58N 22°33' E 120°15'0 0.1
2017-Dec-12 06:28N 22°33' E 120°15'0 0.0
2017-Dec-12 05:58N 22°33' E 120°15'0 0.0
2017-Dec-12 05:28N 22°33' E 120°15'0 0.1
2017-Dec-12 04:58N 22°33' E 120°15'0 0.1
2017-Dec-12 04:28N 22°33' E 120°15'0 0.1
2017-Dec-12 03:58N 22°33' E 120°15'0 0.0
2017-Dec-12 03:28N 22°33' E 120°15'0 0.2
2017-Dec-12 02:58N 22°33' E 120°15'0 0.1
2017-Dec-12 02:28N 22°33' E 120°15'0 0.0
2017-Dec-12 01:58N 22°33' E 120°15'0 0.1
2017-Dec-12 01:28N 22°33' E 120°15'0 0.1
2017-Dec-12 00:58N 22°33' E 120°15'0 0.0
2017-Dec-12 00:28N 22°33' E 120°15'0 0.0
2017-Dec-11 23:58N 22°33' E 120°15'0 0.0
2017-Dec-11 23:28N 22°33' E 120°15'0 0.1
2017-Dec-11 22:52N 22°33' E 120°15'0 0.2
2017-Dec-11 22:22N 22°33' E 120°15'0 0.1
2017-Dec-11 21:58N 22°33' E 120°15'0 0.0
2017-Dec-11 21:22N 22°33' E 120°15'0 0.0
2017-Dec-11 20:58N 22°33' E 120°15'0 0.0
2017-Dec-11 20:28N 22°33' E 120°15'0 0.2
2017-Dec-11 19:58N 22°33' E 120°15'0 0.3
2017-Dec-11 19:28N 22°33' E 120°15'0 0.1
2017-Dec-11 18:58N 22°33' E 120°15'0 0.0
2017-Dec-11 18:28N 22°33' E 120°15'0 0.0
2017-Dec-11 17:58N 22°33' E 120°15'0 0.0
2017-Dec-11 17:28N 22°33' E 120°15'0 0.0
2017-Dec-11 16:58N 22°33' E 120°15'0 0.0
2017-Dec-11 16:28N 22°33' E 120°15'0 0.0
2017-Dec-11 15:58N 22°33' E 120°15'0 0.0
2017-Dec-11 15:28N 22°33' E 120°15'0 0.0
2017-Dec-11 14:58N 22°33' E 120°15'0 0.0
2017-Dec-11 14:28N 22°33' E 120°15'0 0.1
2017-Dec-11 13:28N 22°33' E 120°15'0 0.0
2017-Dec-11 12:58N 22°33' E 120°15'0 0.1
2017-Dec-11 12:28N 22°33' E 120°15'0 0.1
2017-Dec-11 11:58N 22°33' E 120°15'0 0.2
2017-Dec-11 11:28N 22°33' E 120°15'0 0.2
2017-Dec-11 10:58N 22°33' E 120°15'0 0.2
2017-Dec-11 10:28N 22°33' E 120°15'0 0.1
2017-Dec-11 09:58N 22°33' E 120°15'0 0.1
2017-Dec-11 09:22N 22°33' E 120°15'0 0.0
2017-Dec-11 08:58N 22°33' E 120°15'0 0.0
2017-Dec-11 08:28N 22°33' E 120°15'0 0.1
2017-Dec-11 07:58N 22°33' E 120°15'0 0.1
2017-Dec-11 07:28N 22°33' E 120°15'0 0.1
2017-Dec-11 06:58N 22°33' E 120°15'0 0.1
2017-Dec-11 06:28N 22°33' E 120°15'0 0.0
2017-Dec-11 05:58N 22°33' E 120°15'0 0.0
2017-Dec-11 05:28N 22°33' E 120°15'0 0.0
2017-Dec-11 04:58N 22°33' E 120°15'0 0.0
2017-Dec-11 04:28N 22°33' E 120°15'0 0.0
2017-Dec-11 03:58N 22°33' E 120°15'0 0.0
2017-Dec-11 03:28N 22°33' E 120°15'0 0.0
2017-Dec-11 02:58N 22°33' E 120°15'0 0.0
2017-Dec-11 02:28N 22°33' E 120°15'0 0.0
2017-Dec-11 01:58N 22°33' E 120°15'0 0.1
2017-Dec-11 01:28N 22°33' E 120°15'0 0.0
2017-Dec-11 00:58N 22°33' E 120°15'0 0.0
2017-Dec-11 00:22N 22°33' E 120°15'0 0.1
2017-Dec-10 23:58N 22°33' E 120°15'0 0.1
2017-Dec-10 23:28N 22°33' E 120°15'0 0.3
2017-Dec-10 22:58N 22°33' E 120°15'0 0.2
2017-Dec-10 22:28N 22°33' E 120°15'0 0.1
2017-Dec-10 21:58N 22°33' E 120°15'0 0.0
2017-Dec-10 21:28N 22°33' E 120°15'0 0.0
2017-Dec-10 20:58N 22°33' E 120°15'0 0.1
2017-Dec-10 20:28N 22°33' E 120°15'0 0.1
2017-Dec-10 19:58N 22°33' E 120°15'0 0.2
2017-Dec-10 19:28N 22°33' E 120°15'0 0.1
2017-Dec-10 18:58N 22°33' E 120°15'0 0.0
2017-Dec-10 18:28N 22°33' E 120°15'0 0.0
2017-Dec-10 17:58N 22°33' E 120°15'0 0.1
2017-Dec-10 17:28N 22°33' E 120°15'0 0.0
2017-Dec-10 16:58N 22°33' E 120°15'0 0.0
2017-Dec-10 16:28N 22°33' E 120°15'0 0.0
2017-Dec-10 15:58N 22°33' E 120°15'0 0.0
2017-Dec-10 15:28N 22°33' E 120°15'0 0.0
2017-Dec-10 14:58N 22°33' E 120°15'0 0.0
2017-Dec-10 14:28N 22°33' E 120°15'0 0.1
2017-Dec-10 13:58N 22°33' E 120°15'0 0.0
2017-Dec-10 13:28N 22°33' E 120°15'0 0.0
2017-Dec-10 12:58N 22°33' E 120°15'0 0.0
2017-Dec-10 12:28N 22°33' E 120°15'0 0.0
2017-Dec-10 11:58N 22°33' E 120°15'0 0.1
2017-Dec-10 11:28N 22°33' E 120°15'0 0.0
2017-Dec-10 10:58N 22°33' E 120°15'0 0.0
2017-Dec-10 10:28N 22°33' E 120°15'0 0.0
2017-Dec-10 09:58N 22°33' E 120°15'0 0.1
2017-Dec-10 09:28N 22°33' E 120°15'0 0.2
2017-Dec-10 08:55N 22°33' E 120°15'0 0.1
2017-Dec-10 08:25N 22°33' E 120°15'0 0.1
2017-Dec-10 07:58N 22°33' E 120°15'0 0.0
2017-Dec-10 07:28N 22°33' E 120°15'0 0.0
2017-Dec-10 06:58N 22°33' E 120°15'0 0.0
2017-Dec-10 06:22N 22°33' E 120°15'0 0.0
2017-Dec-10 05:58N 22°33' E 120°15'0 0.0
2017-Dec-10 05:28N 22°33' E 120°15'0 0.1
2017-Dec-10 04:58N 22°33' E 120°15'0 0.1
2017-Dec-10 04:28N 22°33' E 120°15'0 0.1
2017-Dec-10 03:58N 22°33' E 120°15'0 0.1
2017-Dec-10 03:28N 22°33' E 120°15'0 0.1
2017-Dec-10 02:58N 22°33' E 120°15'0 0.1
2017-Dec-10 02:28N 22°33' E 120°15'0 0.0
2017-Dec-10 01:58N 22°33' E 120°15'0 0.1
2017-Dec-10 01:28N 22°33' E 120°15'0 0.1
2017-Dec-10 00:58N 22°33' E 120°15'0 0.1
2017-Dec-10 00:28N 22°33' E 120°15'0 0.0
2017-Dec-09 23:52N 22°33' E 120°15'0 0.0
2017-Dec-09 23:28N 22°33' E 120°15'0 0.1
2017-Dec-09 22:58N 22°33' E 120°15'0 0.2
2017-Dec-09 22:28N 22°33' E 120°15'0 0.1
2017-Dec-09 21:58N 22°33' E 120°15'0 0.1
2017-Dec-09 21:28N 22°33' E 120°15'0 0.1
2017-Dec-09 20:58N 22°33' E 120°15'0 0.0
2017-Dec-09 20:28N 22°33' E 120°15'0 0.1
2017-Dec-09 19:58N 22°33' E 120°15'0 0.1
2017-Dec-09 19:28N 22°33' E 120°15'0 0.1
2017-Dec-09 18:58N 22°33' E 120°15'0 0.0
2017-Dec-09 18:28N 22°33' E 120°15'0 0.1
2017-Dec-09 17:58N 22°33' E 120°15'0 0.2
2017-Dec-09 17:28N 22°33' E 120°15'0 0.1
2017-Dec-09 16:58N 22°33' E 120°15'0 0.0
2017-Dec-09 16:28N 22°33' E 120°15'0 0.1
2017-Dec-09 15:58N 22°33' E 120°15'0 0.0
2017-Dec-09 15:28N 22°33' E 120°15'0 0.0
2017-Dec-09 14:58N 22°33' E 120°15'0 0.1
2017-Dec-09 14:28N 22°33' E 120°15'0 0.0
2017-Dec-09 13:58N 22°33' E 120°15'0 0.1
2017-Dec-09 13:28N 22°33' E 120°15'0 0.0
2017-Dec-09 12:58N 22°33' E 120°15'0 0.0
2017-Dec-09 12:28N 22°33' E 120°15'0 0.0
2017-Dec-09 11:58N 22°33' E 120°15'0 0.0
2017-Dec-09 11:28N 22°33' E 120°15'0 0.0
2017-Dec-09 10:58N 22°33' E 120°15'0 0.1
2017-Dec-09 10:28N 22°33' E 120°15'0 0.1
2017-Dec-09 09:58N 22°33' E 120°15'0 0.1
2017-Dec-09 09:28N 22°33' E 120°15'0 0.2
2017-Dec-09 08:58N 22°33' E 120°15'0 0.2
2017-Dec-09 08:28N 22°33' E 120°15'0 0.1
2017-Dec-09 07:58N 22°33' E 120°15'0 0.0
2017-Dec-09 07:28N 22°33' E 120°15'0 0.1
2017-Dec-09 06:58N 22°33' E 120°15'0 0.1
2017-Dec-09 06:28N 22°33' E 120°15'0 0.1
2017-Dec-09 05:52N 22°33' E 120°15'0 0.1
2017-Dec-09 05:28N 22°33' E 120°15'0 0.2
2017-Dec-09 04:55N 22°33' E 120°15'0 0.0
2017-Dec-09 04:28N 22°33' E 120°15'0 0.0
2017-Dec-09 03:58N 22°33' E 120°15'0 0.0
2017-Dec-09 03:28N 22°33' E 120°15'0 0.0
2017-Dec-09 02:58N 22°33' E 120°15'0 0.0
2017-Dec-09 02:28N 22°33' E 120°15'0 0.0
2017-Dec-09 01:58N 22°33' E 120°15'0 0.0
2017-Dec-09 01:28N 22°33' E 120°15'0 0.0
2017-Dec-09 00:58N 22°33' E 120°15'0 0.0
2017-Dec-09 00:28N 22°33' E 120°15'0 0.1
2017-Dec-08 23:58N 22°33' E 120°15'0 0.1
2017-Dec-08 23:28N 22°33' E 120°15'0 0.0
2017-Dec-08 22:58N 22°33' E 120°15'0 0.0
2017-Dec-08 22:28N 22°33' E 120°15'0 0.0
2017-Dec-08 21:58N 22°33' E 120°15'0 0.1
2017-Dec-08 21:28N 22°33' E 120°15'0 0.0
2017-Dec-08 20:58N 22°33' E 120°15'0 0.0
2017-Dec-08 20:28N 22°33' E 120°15'0 0.1
2017-Dec-08 19:58N 22°33' E 120°15'0 0.2
2017-Dec-08 19:28N 22°33' E 120°15'0 0.2
2017-Dec-08 18:58N 22°33' E 120°15'0 0.1
2017-Dec-08 18:28N 22°33' E 120°15'0 0.0
2017-Dec-08 17:58N 22°33' E 120°15'0 0.1
2017-Dec-08 17:28N 22°33' E 120°15'0 0.1
2017-Dec-08 16:52N 22°33' E 120°15'0 0.0
2017-Dec-08 16:28N 22°33' E 120°15'0 0.0
2017-Dec-08 15:58N 22°33' E 120°15'0 0.0
2017-Dec-08 15:28N 22°33' E 120°15'0 0.0
2017-Dec-08 14:58N 22°33' E 120°15'0 0.0
2017-Dec-08 14:28N 22°33' E 120°15'0 0.0
2017-Dec-08 13:58N 22°33' E 120°15'0 0.0
2017-Dec-08 13:28N 22°33' E 120°15'0 0.0
2017-Dec-08 12:58N 22°33' E 120°15'0 0.0
2017-Dec-08 12:28N 22°33' E 120°15'0 0.0
2017-Dec-08 11:58N 22°33' E 120°15'0 0.0
2017-Dec-08 11:28N 22°33' E 120°15'0 0.0
2017-Dec-08 10:58N 22°33' E 120°15'0 0.0
2017-Dec-08 10:28N 22°33' E 120°15'0 0.0
2017-Dec-08 09:58N 22°33' E 120°15'0 0.0
2017-Dec-08 09:28N 22°33' E 120°15'0 0.0
2017-Dec-08 08:58N 22°33' E 120°15'0 0.0
2017-Dec-08 08:28N 22°33' E 120°15'0 0.0
2017-Dec-08 07:58N 22°33' E 120°15'0 0.0
2017-Dec-08 07:28N 22°33' E 120°15'0 0.0
2017-Dec-08 06:55N 22°33' E 120°15'0 0.0
2017-Dec-08 06:28N 22°33' E 120°15'0 0.0
2017-Dec-08 05:58N 22°33' E 120°15'0 0.0
2017-Dec-08 05:28N 22°33' E 120°15'0 0.0
2017-Dec-08 04:58N 22°33' E 120°15'0 0.0
2017-Dec-08 04:28N 22°33' E 120°15'0 0.1
2017-Dec-08 03:58N 22°33' E 120°15'0 0.0
2017-Dec-08 03:28N 22°33' E 120°15'0 0.1
2017-Dec-08 02:58N 22°33' E 120°15'0 0.0
2017-Dec-08 02:28N 22°33' E 120°15'0 0.0
2017-Dec-08 01:58N 22°33' E 120°15'0 0.0
2017-Dec-08 01:28N 22°33' E 120°15'0 0.0
2017-Dec-08 00:58N 22°33' E 120°15'0 0.0
2017-Dec-08 00:28N 22°33' E 120°15'0 0.0
2017-Dec-07 23:58N 22°33' E 120°15'0 0.1
2017-Dec-07 23:28N 22°33' E 120°15'0 0.1
2017-Dec-07 22:58N 22°33' E 120°15'0 0.0
2017-Dec-07 22:28N 22°33' E 120°15'0 0.0
2017-Dec-07 21:58N 22°33' E 120°15'0 0.0
2017-Dec-07 21:28N 22°33' E 120°15'0 0.1
2017-Dec-07 20:58N 22°33' E 120°15'0 0.0
2017-Dec-07 20:28N 22°33' E 120°15'0 0.0
2017-Dec-07 19:58N 22°33' E 120°15'0 0.1
2017-Dec-07 19:28N 22°33' E 120°15'0 0.0
2017-Dec-07 18:58N 22°33' E 120°15'0 0.0
2017-Dec-07 18:28N 22°33' E 120°15'0 0.0
2017-Dec-07 17:58N 22°33' E 120°15'0 0.1
2017-Dec-07 17:28N 22°33' E 120°15'0 0.0
2017-Dec-07 16:58N 22°33' E 120°15'0 0.0
2017-Dec-07 16:28N 22°33' E 120°15'0 0.0
2017-Dec-07 15:58N 22°33' E 120°15'0 0.0
2017-Dec-07 15:28N 22°33' E 120°15'0 0.0
2017-Dec-07 14:58N 22°33' E 120°15'0 0.1
2017-Dec-07 14:28N 22°33' E 120°15'0 0.0
2017-Dec-07 13:58N 22°33' E 120°15'0 0.0
2017-Dec-07 13:28N 22°33' E 120°15'0 0.0
2017-Dec-07 12:58N 22°33' E 120°15'0 0.0
2017-Dec-07 12:28N 22°33' E 120°15'0 0.0
2017-Dec-07 11:58N 22°33' E 120°15'0 0.0
2017-Dec-07 11:28N 22°33' E 120°15'0 0.0
2017-Dec-07 10:58N 22°33' E 120°15'0 0.0
2017-Dec-07 10:28N 22°33' E 120°15'0 0.0
2017-Dec-07 09:58N 22°33' E 120°15'0 0.0
2017-Dec-07 09:28N 22°33' E 120°15'0 0.0
2017-Dec-07 08:58N 22°33' E 120°15'0 0.0
2017-Dec-07 08:28N 22°33' E 120°15'0 0.0
2017-Dec-07 07:58N 22°33' E 120°15'0 0.0
2017-Dec-07 07:28N 22°33' E 120°15'0 0.0
2017-Dec-07 06:58N 22°33' E 120°15'0 0.1
2017-Dec-07 06:28N 22°33' E 120°15'0 0.3
2017-Dec-07 05:58N 22°33' E 120°15'0 0.2
2017-Dec-07 05:28N 22°33' E 120°15'0 0.1
2017-Dec-07 04:58N 22°33' E 120°15'0 0.0
2017-Dec-07 04:28N 22°33' E 120°15'0 0.0
2017-Dec-07 03:58N 22°33' E 120°15'0 0.1
2017-Dec-07 03:28N 22°33' E 120°15'0 0.0
2017-Dec-07 02:55N 22°33' E 120°15'0 0.0
2017-Dec-07 02:28N 22°33' E 120°15'0 0.2
2017-Dec-07 01:58N 22°33' E 120°15'0 0.1
2017-Dec-07 01:28N 22°33' E 120°15'0 0.1
2017-Dec-07 00:58N 22°33' E 120°15'0 0.1
2017-Dec-07 00:28N 22°33' E 120°15'0 0.1
2017-Dec-06 23:58N 22°33' E 120°15'0 0.1
2017-Dec-06 23:28N 22°33' E 120°15'0 0.1
2017-Dec-06 22:58N 22°33' E 120°15'0 0.0
2017-Dec-06 22:28N 22°33' E 120°15'0 0.0
2017-Dec-06 21:58N 22°33' E 120°15'0 0.0
2017-Dec-06 21:28N 22°33' E 120°15'0 0.0
2017-Dec-06 20:58N 22°33' E 120°15'  
2017-Dec-04 10:28N 22°33' E 120°15'0 0.0
2017-Dec-04 09:58N 22°33' E 120°15'0 0.0
2017-Dec-04 09:28N 22°33' E 120°15'0 0.0
2017-Dec-04 08:58N 22°33' E 120°15'  

Dump ship's entire track history